Time;durP1;ratioP1;P1;durP2;ratioP2;P2;SDS_P1;SDS_P2;PMS_P1;PMS_P2;Temp;Humidity;BMP_temperature;BMP_pressure;BME280_temperature;BME280_humidity;BME280_pressure;Samples;Min_cycle;Max_cycle;Signal;HPM_P1;HPM_P2
2021/07/10 00:01:13;;;;;;;5.55;2.00;;;;;;;23.37;65.18;100333.53;6101453;23;20064;-75
2021/07/10 00:03:39;;;;;;;2.00;1.52;;;;;;;23.31;65.18;100332.66;6101377;23;20003;-75
2021/07/10 00:06:05;;;;;;;1.98;1.83;;;;;;;23.24;65.55;100330.94;6101323;23;20013;-75
2021/07/10 00:08:31;;;;;;;2.38;1.65;;;;;;;23.15;65.69;100328.16;6101546;23;20010;-76
2021/07/10 00:10:56;;;;;;;1.70;1.60;;;;;;;23.08;66.00;100329.34;6075804;23;20085;-75
2021/07/10 00:13:22;;;;;;;3.03;1.67;;;;;;;22.99;66.35;100329.41;6101452;23;20109;-75
2021/07/10 00:15:47;;;;;;;3.22;1.70;;;;;;;22.90;66.78;100326.63;6075707;23;20013;-75
2021/07/10 00:18:13;;;;;;;3.22;1.80;;;;;;;22.85;66.83;100327.31;6075911;23;20002;-74
2021/07/10 00:20:38;;;;;;;6.68;2.03;;;;;;;22.79;65.92;100329.25;6101007;23;20010;-75
2021/07/10 00:23:04;;;;;;;1.65;1.30;;;;;;;22.78;65.41;100333.38;6100847;23;20009;-75
2021/07/10 00:25:29;;;;;;;3.45;1.42;;;;;;;22.74;65.16;100327.06;6100954;23;20003;-75
2021/07/10 00:27:55;;;;;;;0.93;0.90;;;;;;;22.70;64.97;100335.00;6101156;23;20017;-74
2021/07/10 00:30:21;;;;;;;1.08;1.00;;;;;;;22.64;64.72;100334.91;6101121;23;20034;-74
2021/07/10 00:32:48;;;;;;;3.40;1.20;;;;;;;22.60;64.58;100344.97;6100689;23;20018;-75
2021/07/10 00:35:14;;;;;;;4.20;1.20;;;;;;;22.56;64.68;100347.22;6101209;23;20006;-75
2021/07/10 00:37:40;;;;;;;2.63;1.15;;;;;;;22.50;64.80;100355.69;6100933;23;20012;-76
2021/07/10 00:40:08;;;;;;;1.75;1.10;;;;;;;22.48;64.92;100349.66;6100734;23;20081;-75
2021/07/10 00:42:35;;;;;;;3.33;1.10;;;;;;;22.46;64.74;100353.00;6101079;23;20010;-75
2021/07/10 00:45:01;;;;;;;4.03;1.08;;;;;;;22.45;64.66;100356.34;6100954;23;20030;-75
2021/07/10 00:47:26;;;;;;;3.10;1.20;;;;;;;22.40;64.71;100366.38;6075806;23;20009;-76
2021/07/10 00:49:51;;;;;;;5.38;1.25;;;;;;;22.36;64.84;100360.03;6100960;23;20035;-75
2021/07/10 00:52:17;;;;;;;1.05;0.90;;;;;;;22.32;65.11;100370.88;6100959;23;20009;-75
2021/07/10 00:54:42;;;;;;;3.60;1.02;;;;;;;22.30;64.91;100372.66;6100351;23;20318;-75
2021/07/10 00:57:09;;;;;;;1.30;1.00;;;;;;;22.27;64.91;100371.56;6100688;23;20362;-75
2021/07/10 00:59:35;;;;;;;1.05;0.98;;;;;;;22.22;64.74;100377.94;6101053;23;20028;-75
2021/07/10 01:02:01;;;;;;;0.88;0.85;;;;;;;22.18;65.10;100374.44;6100808;23;20058;-75
2021/07/10 01:04:26;;;;;;;1.27;0.80;;;;;;;22.14;65.45;100379.56;6100528;23;20006;-73
2021/07/10 01:06:52;;;;;;;2.97;1.00;;;;;;;22.09;65.74;100374.50;6099567;23;20013;-74
2021/07/10 01:09:17;;;;;;;2.47;1.00;;;;;;;22.07;65.54;100380.69;6100210;23;19998;-75
2021/07/10 01:11:44;;;;;;;1.08;0.65;;;;;;;22.02;65.65;100374.81;6075574;23;20056;-73
2021/07/10 01:14:10;;;;;;;3.17;1.00;;;;;;;21.95;66.42;100383.75;6100712;23;20002;-75
2021/07/10 01:16:36;;;;;;;4.07;0.95;;;;;;;21.86;67.19;100379.59;6100748;23;20073;-72
2021/07/10 01:19:01;;;;;;;1.13;0.98;;;;;;;21.83;67.79;100374.06;6100595;23;20391;-71
2021/07/10 01:21:27;;;;;;;4.65;1.00;;;;;;;21.77;67.97;100364.56;6100698;23;20017;-75
2021/07/10 01:23:52;;;;;;;1.00;0.90;;;;;;;21.72;68.82;100363.13;6100331;23;20002;-75
2021/07/10 01:26:19;;;;;;;1.85;0.90;;;;;;;21.67;68.71;100366.66;6099106;23;20363;-76
2021/07/10 01:28:44;;;;;;;2.65;0.98;;;;;;;21.65;67.81;100356.97;6100573;23;20009;-75
2021/07/10 01:31:10;;;;;;;1.40;1.00;;;;;;;21.61;67.06;100351.38;6075039;23;20033;-74
2021/07/10 01:33:36;;;;;;;1.85;1.10;;;;;;;21.57;66.56;100351.56;6100191;23;20022;-76
2021/07/10 01:36:01;;;;;;;3.17;1.00;;;;;;;21.57;65.82;100359.34;6100394;23;20415;-76
2021/07/10 01:38:26;;;;;;;0.85;0.60;;;;;;;21.55;65.50;100359.03;6075067;23;20050;-75
2021/07/10 01:40:52;;;;;;;4.00;0.90;;;;;;;21.52;64.94;100355.06;6100068;23;20003;-74
2021/07/10 01:43:17;;;;;;;1.02;0.60;;;;;;;21.50;64.91;100363.34;6100539;23;20081;-77
2021/07/10 01:45:43;;;;;;;3.53;0.77;;;;;;;21.47;64.77;100355.72;6075132;23;20010;-78
2021/07/10 01:48:10;;;;;;;0.65;0.50;;;;;;;21.44;64.93;100356.69;6100433;23;20017;-72
2021/07/10 01:50:36;;;;;;;0.57;0.52;;;;;;;21.43;64.53;100357.16;6100369;23;20014;-74
2021/07/10 01:53:01;;;;;;;1.70;0.60;;;;;;;21.41;64.59;100362.56;6100007;23;20006;-71
2021/07/10 01:55:28;;;;;;;1.05;0.50;;;;;;;21.38;64.17;100360.66;6100476;23;20013;-71
2021/07/10 01:57:53;;;;;;;1.80;0.70;;;;;;;21.36;64.13;100368.91;6074702;23;20375;-71
2021/07/10 02:00:20;;;;;;;0.52;0.43;;;;;;;21.35;63.84;100364.44;6100221;23;20009;-75
2021/07/10 02:02:46;;;;;;;2.20;0.73;;;;;;;21.33;63.59;100364.13;6100258;23;20016;-75
2021/07/10 02:05:12;;;;;;;0.50;0.50;;;;;;;21.31;63.45;100366.69;6100158;23;20033;-76
2021/07/10 02:07:38;;;;;;;2.20;0.90;;;;;;;21.31;63.40;100366.69;6099985;23;20014;-74
2021/07/10 02:10:09;;;;;;;0.50;0.47;;;;;;;21.29;63.68;100376.53;6100660;23;20258;-75
2021/07/10 02:12:35;;;;;;;2.15;0.52;;;;;;;21.28;63.56;100365.56;6100215;23;20030;-76
2021/07/10 02:15:01;;;;;;;2.70;0.50;;;;;;;21.27;63.53;100356.22;6100178;23;20049;-76
2021/07/10 02:17:26;;;;;;;5.25;0.75;;;;;;;21.27;63.33;100364.78;6100182;23;20030;-70
2021/07/10 02:19:52;;;;;;;0.75;0.30;;;;;;;21.24;63.28;100368.59;6099851;23;20267;-76
2021/07/10 02:22:17;;;;;;;0.85;0.60;;;;;;;21.24;63.54;100376.38;6099719;23;20244;-76
2021/07/10 02:24:42;;;;;;;0.60;0.47;;;;;;;21.23;63.16;100375.59;6100167;23;20345;-75
2021/07/10 02:27:08;;;;;;;2.58;0.60;;;;;;;21.22;63.29;100376.03;6099996;23;20003;-75
2021/07/10 02:29:33;;;;;;;4.00;0.60;;;;;;;21.20;62.85;100381.44;6100252;23;20002;-75
2021/07/10 02:31:59;;;;;;;0.40;0.30;;;;;;;21.21;62.73;100385.88;6099888;23;20093;-70
2021/07/10 02:34:24;;;;;;;1.15;0.40;;;;;;;21.20;62.78;100393.66;6099926;23;20093;-74
2021/07/10 02:36:49;;;;;;;1.77;0.40;;;;;;;21.19;63.13;100394.13;6099677;23;20271;-73
2021/07/10 02:39:15;;;;;;;0.88;0.35;;;;;;;21.17;63.07;100400.34;6100014;23;20388;-75
2021/07/10 02:41:40;;;;;;;1.00;0.30;;;;;;;21.15;63.09;100397.16;6100140;23;20316;-75
2021/07/10 02:44:06;;;;;;;0.95;0.60;;;;;;;21.15;63.21;100404.94;6099769;23;20002;-74
2021/07/10 02:46:32;;;;;;;0.70;0.40;;;;;;;21.13;63.47;100399.69;6100118;23;20010;-75
2021/07/10 02:48:58;;;;;;;0.40;0.40;;;;;;;21.12;63.27;100406.69;6074884;23;20760;-75
2021/07/10 02:51:27;;;;;;;0.82;0.40;;;;;;;21.11;63.17;100405.09;6099739;23;20009;-77
2021/07/10 02:53:56;;;;;;;4.68;0.30;;;;;;;21.12;63.64;100403.84;6100070;23;20359;-76
2021/07/10 02:56:23;;;;;;;5.20;0.60;;;;;;;21.12;63.59;100400.97;6099876;23;20013;-75
2021/07/10 02:58:49;;;;;;;2.42;0.70;;;;;;;21.11;63.53;100399.38;6099885;23;20274;-76
2021/07/10 03:01:14;;;;;;;4.13;0.40;;;;;;;21.10;63.39;100394.94;6100701;23;20422;-75
2021/07/10 03:03:39;;;;;;;0.50;0.50;;;;;;;21.13;63.60;100402.56;6102022;23;20035;-75
2021/07/10 03:06:05;;;;;;;0.30;0.30;;;;;;;21.13;63.30;100398.91;6101630;23;20011;-75
2021/07/10 03:08:30;;;;;;;0.63;0.20;;;;;;;21.11;63.02;100393.66;6102227;23;20363;-76
2021/07/10 03:10:56;;;;;;;0.85;0.30;;;;;;;21.09;63.24;100396.22;6101811;23;19998;-75
2021/07/10 03:13:21;;;;;;;0.90;0.35;;;;;;;21.08;63.02;100393.81;6076641;23;20438;-76
2021/07/10 03:15:47;;;;;;;2.63;0.50;;;;;;;21.05;62.90;100400.47;6101721;23;20445;-76
2021/07/10 03:18:12;;;;;;;1.45;0.50;;;;;;;21.02;63.00;100404.28;6101932;23;20002;-76
2021/07/10 03:20:38;;;;;;;3.20;0.47;;;;;;;21.01;62.93;100411.25;6076147;23;20010;-75
2021/07/10 03:23:03;;;;;;;1.00;0.40;;;;;;;20.96;63.20;100413.50;6101644;23;20326;-74
2021/07/10 03:25:29;;;;;;;4.75;0.65;;;;;;;20.92;64.06;100414.91;6101935;23;20007;-75
2021/07/10 03:27:56;;;;;;;0.60;0.40;;;;;;;20.90;64.03;100423.16;6101824;23;20009;-76
2021/07/10 03:30:22;;;;;;;1.02;0.30;;;;;;;20.88;64.47;100417.94;6076381;23;20103;-76
2021/07/10 03:32:48;;;;;;;3.22;0.35;;;;;;;20.85;64.58;100418.88;6101240;23;20014;-76
2021/07/10 03:35:14;;;;;;;1.45;0.30;;;;;;;20.84;64.01;100414.44;6076516;23;20264;-76
2021/07/10 03:37:40;;;;;;;2.78;0.55;;;;;;;20.83;64.54;100417.75;6101341;23;20045;-75
2021/07/10 03:40:10;;;;;;;2.47;0.43;;;;;;;20.80;65.21;100419.47;6101726;23;20006;-76
2021/07/10 03:42:36;;;;;;;0.75;0.32;;;;;;;20.79;65.42;100417.09;6076343;23;20252;-73
2021/07/10 03:45:02;;;;;;;1.55;0.52;;;;;;;20.78;65.22;100415.50;6101472;23;20089;-75
2021/07/10 03:47:28;;;;;;;2.45;0.40;;;;;;;20.77;65.31;100413.91;6101676;23;20013;-74
2021/07/10 03:49:53;;;;;;;0.50;0.30;;;;;;;20.76;65.60;100427.41;6101560;23;20124;-75
2021/07/10 03:52:19;;;;;;;2.05;0.90;;;;;;;20.76;64.89;100413.13;6101631;23;20029;-76
2021/07/10 03:54:46;;;;;;;1.85;0.40;;;;;;;20.80;64.99;100421.53;6075966;23;20010;-75
2021/07/10 03:57:11;;;;;;;0.75;0.60;;;;;;;20.83;64.86;100412.84;6101728;23;20029;-75
2021/07/10 03:59:36;;;;;;;1.40;0.38;;;;;;;20.86;64.88;100419.66;6101345;23;20370;-74
2021/07/10 04:02:02;;;;;;;2.20;0.30;;;;;;;20.90;64.45;100423.97;6075748;23;20069;-74
2021/07/10 04:04:27;;;;;;;4.47;0.50;;;;;;;20.94;64.49;100416.03;6101476;23;20002;-75
2021/07/10 04:06:53;;;;;;;2.43;0.47;;;;;;;20.99;64.27;100421.09;6101522;23;20030;-75
2021/07/10 04:09:18;;;;;;;1.10;0.40;;;;;;;21.03;64.36;100431.59;6076062;23;20525;-76
2021/07/10 04:11:43;;;;;;;1.02;0.40;;;;;;;21.06;64.25;100428.56;6101174;23;20474;-75
2021/07/10 04:14:09;;;;;;;3.03;0.50;;;;;;;21.10;64.29;100434.94;6101513;23;20006;-75
2021/07/10 04:16:34;;;;;;;1.77;0.55;;;;;;;21.12;64.09;100432.41;6075767;23;20070;-75
2021/07/10 04:18:59;;;;;;;3.15;0.50;;;;;;;21.15;64.14;100433.53;6101077;23;20029;-76
2021/07/10 04:21:25;;;;;;;0.45;0.40;;;;;;;21.17;64.32;100437.50;6101440;23;20006;-76
2021/07/10 04:23:50;;;;;;;1.10;0.80;;;;;;;21.19;64.32;100437.81;6101517;23;20392;-75
2021/07/10 04:26:15;;;;;;;2.97;0.28;;;;;;;21.21;64.14;100443.84;6101135;23;20267;-71
2021/07/10 04:28:41;;;;;;;1.25;0.40;;;;;;;21.23;63.84;100431.94;6075932;23;20060;-76
2021/07/10 04:31:06;;;;;;;0.32;0.30;;;;;;;21.25;63.90;100443.72;6101152;23;20006;-75
2021/07/10 04:33:32;;;;;;;0.47;0.43;;;;;;;21.27;64.07;100453.41;6100488;23;20022;-75
2021/07/10 04:35:57;;;;;;;0.38;0.38;;;;;;;21.29;63.86;100445.13;6101158;23;20021;-75
2021/07/10 04:38:22;;;;;;;1.15;0.40;;;;;;;21.32;63.69;100448.31;6101248;23;20006;-76
2021/07/10 04:40:48;;;;;;;5.82;0.57;;;;;;;21.35;63.69;100453.88;6100506;23;20010;-71
2021/07/10 04:43:13;;;;;;;0.38;0.38;;;;;;;21.39;63.60;100453.75;6101230;23;20030;-76
2021/07/10 04:45:39;;;;;;;2.80;0.30;;;;;;;21.42;63.22;100449.94;6075632;23;20010;-75
2021/07/10 04:48:06;;;;;;;0.68;0.32;;;;;;;21.47;63.63;100449.28;6101040;23;20006;-76
2021/07/10 04:50:31;;;;;;;0.95;0.30;;;;;;;21.52;63.08;100451.50;6100944;23;20109;-76
2021/07/10 04:52:57;;;;;;;1.17;0.55;;;;;;;21.54;62.49;100452.63;6100834;23;20037;-75
2021/07/10 04:55:22;;;;;;;2.53;0.47;;;;;;;21.57;62.29;100465.16;6101165;23;20010;-78
2021/07/10 04:57:48;;;;;;;1.92;0.50;;;;;;;21.57;62.39;100457.38;6100518;23;20417;-77
2021/07/10 05:00:14;;;;;;;1.40;0.38;;;;;;;21.60;62.21;100453.56;6101060;23;20006;-75
2021/07/10 05:02:42;;;;;;;3.75;0.30;;;;;;;21.66;62.54;100450.88;6100880;23;20006;-76
2021/07/10 05:05:08;;;;;;;1.15;0.47;;;;;;;21.70;63.04;100456.44;6100725;23;20366;-75
2021/07/10 05:07:34;;;;;;;1.15;0.50;;;;;;;21.73;62.66;100455.47;6100901;23;20062;-75
2021/07/10 05:10:00;;;;;;;5.30;0.70;;;;;;;21.76;62.12;100465.94;6100749;23;20002;-75
2021/07/10 05:12:25;;;;;;;0.68;0.30;;;;;;;21.79;62.46;100474.38;6101044;23;20002;-75
2021/07/10 05:14:52;;;;;;;0.40;0.30;;;;;;;21.82;61.99;100478.34;6100349;23;20014;-73
2021/07/10 05:17:18;;;;;;;0.73;0.35;;;;;;;21.83;61.83;100477.84;6100847;23;20006;-74
2021/07/10 05:19:44;;;;;;;2.90;0.85;;;;;;;21.83;62.06;100486.44;6100388;23;20084;-76
2021/07/10 05:22:09;;;;;;;0.47;0.20;;;;;;;21.85;62.21;100481.03;6100790;23;20037;-75
2021/07/10 05:24:35;;;;;;;1.38;0.40;;;;;;;21.86;62.57;100481.81;6100495;23;20025;-77
2021/07/10 05:27:01;;;;;;;0.80;0.20;;;;;;;21.87;62.28;100472.75;6100427;23;20381;-76
2021/07/10 05:29:26;;;;;;;0.52;0.30;;;;;;;21.89;62.31;100481.66;6075157;23;20013;-76
2021/07/10 05:31:52;;;;;;;0.60;0.38;;;;;;;21.92;61.97;100474.22;6075272;23;20279;-76
2021/07/10 05:34:17;;;;;;;1.63;0.45;;;;;;;21.93;62.22;100492.97;6100359;23;20379;-76
2021/07/10 05:36:43;;;;;;;0.60;0.30;;;;;;;21.97;62.06;100493.59;6100740;23;20010;-76
2021/07/10 05:39:08;;;;;;;1.27;0.52;;;;;;;22.04;62.47;100495.34;6100302;23;20028;-76
2021/07/10 05:41:33;;;;;;;2.58;0.30;;;;;;;22.12;62.27;100493.75;6100660;23;20010;-76
2021/07/10 05:43:59;;;;;;;2.25;0.50;;;;;;;22.18;62.03;100503.25;6099990;23;20359;-75
2021/07/10 05:46:25;;;;;;;1.83;0.43;;;;;;;22.24;61.51;100506.28;6100666;23;20005;-76
2021/07/10 05:48:50;;;;;;;4.40;0.50;;;;;;;22.28;61.47;100499.13;6100406;23;20010;-76
2021/07/10 05:51:15;;;;;;;1.60;0.60;;;;;;;22.32;61.15;100513.25;6100463;23;20002;-77
2021/07/10 05:53:41;;;;;;;1.27;0.38;;;;;;;22.36;61.25;100508.16;6075093;23;20086;-77
2021/07/10 05:56:06;;;;;;;0.73;0.40;;;;;;;22.40;60.75;100505.91;6100299;23;20354;-73
2021/07/10 05:58:32;;;;;;;2.05;0.77;;;;;;;22.43;60.24;100514.34;6100236;23;20347;-76
2021/07/10 06:00:57;;;;;;;0.63;0.52;;;;;;;22.45;59.65;100519.56;6099867;23;20002;-74
2021/07/10 06:03:22;;;;;;;2.33;0.52;;;;;;;22.47;59.98;100517.84;6100493;23;20056;-72
2021/07/10 06:05:48;;;;;;;0.43;0.38;;;;;;;22.49;60.03;100518.16;6100367;23;20367;-78
2021/07/10 06:08:13;;;;;;;1.98;0.30;;;;;;;22.52;60.40;100517.19;6100180;23;20002;-73
2021/07/10 06:10:38;;;;;;;0.38;0.30;;;;;;;22.56;60.26;100517.00;6075128;23;20002;-72
2021/07/10 06:13:04;;;;;;;2.15;0.50;;;;;;;22.61;59.62;100515.56;6099834;23;20006;-74
2021/07/10 06:15:29;;;;;;;1.42;0.25;;;;;;;22.63;59.54;100515.88;6100142;23;20009;-77
2021/07/10 06:17:55;;;;;;;1.52;0.38;;;;;;;22.66;60.11;100517.75;6100255;23;20010;-75
2021/07/10 06:20:22;;;;;;;1.60;0.45;;;;;;;22.68;59.77;100515.19;6100061;23;20306;-77
2021/07/10 06:22:49;;;;;;;1.88;0.50;;;;;;;22.70;59.29;100515.50;6074985;23;20271;-77
2021/07/10 06:25:15;;;;;;;0.80;0.40;;;;;;;22.72;59.70;100513.75;6099981;23;20002;-77
2021/07/10 06:27:44;;;;;;;1.95;0.50;;;;;;;22.76;59.73;100511.53;6100087;23;20078;-75
2021/07/10 06:30:11;;;;;;;0.30;0.30;;;;;;;22.80;59.71;100514.22;6100091;23;20323;-75
2021/07/10 06:32:38;;;;;;;0.90;0.57;;;;;;;22.84;59.42;100520.59;6099939;23;20069;-75
2021/07/10 06:35:04;;;;;;;0.50;0.47;;;;;;;22.85;59.45;100518.50;6074814;23;20013;-75
2021/07/10 06:37:30;;;;;;;2.40;0.68;;;;;;;22.87;59.96;100519.63;6100089;23;20057;-76
2021/07/10 06:39:55;;;;;;;0.77;0.50;;;;;;;22.89;59.23;100517.06;6099867;23;20093;-75
2021/07/10 06:42:20;;;;;;;0.55;0.43;;;;;;;22.93;59.33;100523.41;6099909;23;20006;-75
2021/07/10 06:44:46;;;;;;;3.65;0.38;;;;;;;22.98;59.33;100534.19;6100136;23;20265;-73
2021/07/10 06:47:12;;;;;;;0.57;0.22;;;;;;;23.03;59.48;100518.44;6100079;23;20006;-76
2021/07/10 06:49:37;;;;;;;1.38;0.40;;;;;;;23.12;59.43;100522.03;6100014;23;20009;-76
2021/07/10 06:52:03;;;;;;;0.30;0.30;;;;;;;23.22;60.08;100510.50;6100124;23;20256;-76
2021/07/10 06:54:28;;;;;;;0.63;0.40;;;;;;;23.35;60.09;100520.47;6099951;23;20002;-77
2021/07/10 06:56:54;;;;;;;0.98;0.40;;;;;;;23.47;59.13;100514.94;6099824;23;20014;-76
2021/07/10 06:59:19;;;;;;;2.58;0.50;;;;;;;23.60;57.95;100518.41;6099970;23;20006;-77
2021/07/10 07:01:46;;;;;;;1.35;0.50;;;;;;;23.71;57.03;100525.16;6099937;23;20010;-76
2021/07/10 07:04:12;;;;;;;2.67;0.50;;;;;;;23.83;57.49;100519.63;6074784;23;20085;-77
2021/07/10 07:06:37;;;;;;;1.90;0.38;;;;;;;23.99;57.18;100510.56;6099971;23;20389;-73
2021/07/10 07:09:03;;;;;;;4.30;0.60;;;;;;;24.11;56.91;100508.69;6100087;23;20006;-77
2021/07/10 07:11:29;;;;;;;1.02;0.60;;;;;;;24.21;55.39;100515.94;6099552;23;20003;-77
2021/07/10 07:13:54;;;;;;;2.30;0.68;;;;;;;24.30;55.71;100513.78;6099957;23;20054;-77
2021/07/10 07:16:19;;;;;;;4.15;0.45;;;;;;;24.39;55.35;100514.97;6099532;23;20077;-76
2021/07/10 07:18:45;;;;;;;6.65;0.63;;;;;;;24.51;55.88;100511.78;6099007;23;20005;-72
2021/07/10 07:21:10;;;;;;;1.83;0.70;;;;;;;24.65;54.77;100501.56;6073950;23;20011;-72
2021/07/10 07:23:35;;;;;;;1.67;0.82;;;;;;;24.74;55.40;100498.56;6099287;23;20270;-74
2021/07/10 07:26:01;;;;;;;4.63;0.50;;;;;;;24.82;53.78;100496.88;6073841;23;20427;-75
2021/07/10 07:28:26;;;;;;;4.43;0.60;;;;;;;24.90;53.97;100502.97;6073523;23;20515;-76
2021/07/10 07:30:51;;;;;;;2.58;0.60;;;;;;;24.99;53.92;100508.66;6099399;23;20002;-73
2021/07/10 07:33:17;;;;;;;0.30;0.30;;;;;;;25.12;52.67;100508.31;6073038;23;20484;-75
2021/07/10 07:35:43;;;;;;;3.28;0.40;;;;;;;25.18;53.49;100506.28;6097467;23;20006;-73
2021/07/10 07:38:08;;;;;;;0.47;0.32;;;;;;;25.29;53.85;100502.81;6095845;23;20114;-74
2021/07/10 07:40:34;;;;;;;1.05;0.40;;;;;;;25.35;52.82;100501.56;6096227;23;20014;-74
2021/07/10 07:42:59;;;;;;;1.75;0.47;;;;;;;25.46;53.89;100493.06;6099575;23;20050;-68
2021/07/10 07:45:24;;;;;;;0.57;0.57;;;;;;;25.55;52.59;100495.03;6100054;23;20054;-75
2021/07/10 07:47:50;;;;;;;0.73;0.52;;;;;;;25.62;53.18;100494.59;6100742;23;20061;-67
2021/07/10 07:50:16;;;;;;;0.95;0.35;;;;;;;25.68;52.32;100486.84;6101555;23;20061;-74
2021/07/10 07:52:42;;;;;;;0.47;0.40;;;;;;;25.73;51.89;100482.44;6101522;23;20065;-74
2021/07/10 07:55:10;;;;;;;1.08;0.68;;;;;;;25.76;52.24;100490.09;6101112;23;20006;-75
2021/07/10 07:57:37;;;;;;;1.20;0.30;;;;;;;25.77;51.41;100500.31;6101505;23;20085;-74
2021/07/10 08:00:07;;;;;;;2.75;0.60;;;;;;;25.77;51.67;100491.66;6101373;23;20017;-74
2021/07/10 08:02:33;;;;;;;2.33;0.88;;;;;;;25.80;52.44;100493.53;6101501;23;20393;-73
2021/07/10 08:04:58;;;;;;;0.73;0.50;;;;;;;25.84;51.51;100491.22;6101253;23;20003;-74
2021/07/10 08:07:23;;;;;;;1.70;0.70;;;;;;;25.87;52.28;100495.97;6075611;23;20077;-73
2021/07/10 08:09:49;;;;;;;1.08;0.60;;;;;;;25.88;51.64;100500.41;6099560;23;20074;-72
2021/07/10 08:12:14;;;;;;;2.22;0.45;;;;;;;25.90;52.46;100500.69;6100590;23;20002;-75
2021/07/10 08:14:40;;;;;;;0.60;0.60;;;;;;;25.91;51.82;100495.72;6100917;23;20311;-73
2021/07/10 08:17:05;;;;;;;0.43;0.43;;;;;;;25.91;51.78;100501.50;6100894;23;20010;-73
2021/07/10 08:19:31;;;;;;;3.30;0.60;;;;;;;25.93;51.85;100505.44;6100768;23;20268;-72
2021/07/10 08:21:56;;;;;;;0.40;0.30;;;;;;;25.96;52.11;100501.53;6100688;23;20016;-73
2021/07/10 08:24:22;;;;;;;0.60;0.60;;;;;;;25.98;51.23;100496.06;6100138;23;20002;-72
2021/07/10 08:26:47;;;;;;;2.83;0.40;;;;;;;25.97;50.80;100491.59;6100427;23;20030;-72
2021/07/10 08:29:12;;;;;;;2.40;0.55;;;;;;;26.00;52.07;100495.56;6100634;23;20322;-72
2021/07/10 08:31:41;;;;;;;1.00;0.57;;;;;;;26.01;51.81;100495.03;6075092;23;20033;-72
2021/07/10 08:34:07;;;;;;;0.82;0.73;;;;;;;26.03;52.23;100478.06;6075192;23;20036;-71
2021/07/10 08:36:32;;;;;;;5.82;1.02;;;;;;;26.05;51.60;100481.22;6099904;23;20374;-72
2021/07/10 08:38:57;;;;;;;0.60;0.45;;;;;;;26.07;51.54;100474.97;6100337;23;20022;-72
2021/07/10 08:41:23;;;;;;;0.40;0.40;;;;;;;26.05;51.08;100477.56;6100740;23;20003;-73
2021/07/10 08:43:48;;;;;;;1.40;0.50;;;;;;;26.07;51.73;100475.75;6075618;23;20002;-72
2021/07/10 08:46:16;;;;;;;1.55;0.60;;;;;;;26.11;52.71;100487.84;6100941;23;20010;-72
2021/07/10 08:48:42;;;;;;;0.65;0.65;;;;;;;26.15;51.49;100491.28;6075773;23;20006;-72
2021/07/10 08:51:07;;;;;;;1.13;0.60;;;;;;;26.18;51.00;100496.00;6075084;23;20012;-72
2021/07/10 08:53:34;;;;;;;2.05;0.50;;;;;;;26.19;50.59;100499.69;6100579;23;20009;-72
2021/07/10 08:55:59;;;;;;;1.48;0.57;;;;;;;26.22;51.22;100510.19;6100659;23;20003;-72
2021/07/10 08:58:25;;;;;;;2.92;0.63;;;;;;;26.28;51.24;100513.91;6075511;23;20021;-73
2021/07/10 09:00:52;;;;;;;0.75;0.55;;;;;;;26.36;52.51;100497.00;6100579;23;20006;-73
2021/07/10 09:03:18;;;;;;;2.88;0.68;;;;;;;26.45;52.13;100486.06;6100900;23;20310;-72
2021/07/10 09:05:43;;;;;;;0.70;0.70;;;;;;;26.57;52.71;100491.91;6100502;23;20081;-72
2021/07/10 09:08:27;;;;;;;4.28;0.55;;;;;;;26.71;52.12;100491.00;6100231;23;20030;-73
2021/07/10 09:11:00;;;;;;;1.40;0.80;;;;;;;26.84;49.71;100484.78;6075543;23;20006;-72
2021/07/10 09:13:31;;;;;;;0.57;0.57;;;;;;;26.92;49.90;100483.81;6100290;23;20009;-72
2021/07/10 09:16:04;;;;;;;;;;;;;;;27.03;50.13;100491.75;6100964;23;20073;-73
2021/07/10 09:18:48;;;;;;;4.28;0.80;;;;;;;27.07;49.71;100472.13;6099570;23;19905;-74
2021/07/10 09:21:35;;;;;;;1.98;0.73;;;;;;;27.14;49.58;100488.97;6100424;23;20422;-72
2021/07/10 09:24:04;;;;;;;1.70;0.80;;;;;;;27.23;50.40;100485.84;6075185;23;20030;-72
2021/07/10 09:26:30;;;;;;;0.90;0.90;;;;;;;27.32;49.94;100485.63;6075317;23;20278;-74
2021/07/10 09:29:12;;;;;;;1.30;1.20;;;;;;;27.38;48.52;100474.09;6100430;23;20014;-74
2021/07/10 09:31:45;;;;;;;1.02;0.95;;;;;;;27.42;49.43;100474.66;6100313;23;20057;-73
2021/07/10 09:34:13;;;;;;;0.82;0.82;;;;;;;27.45;49.48;100464.97;6100356;23;20018;-74
2021/07/10 09:36:59;;;;;;;2.22;1.13;;;;;;;27.48;49.51;100472.59;6100110;23;20285;-74
2021/07/10 09:39:28;;;;;;;3.28;0.90;;;;;;;27.51;50.36;100465.78;6100635;23;20362;-75
2021/07/10 09:41:56;;;;;;;2.65;0.90;;;;;;;27.57;50.87;100468.66;6100225;23;20007;-73
2021/07/10 09:44:21;;;;;;;1.30;0.80;;;;;;;27.65;50.99;100464.00;6100148;23;20013;-72
2021/07/10 09:46:46;;;;;;;5.80;0.98;;;;;;;27.75;50.90;100467.47;6075126;23;20007;-69
2021/07/10 09:49:25;;;;;;;0.95;0.75;;;;;;;27.81;49.51;100460.38;6100077;23;20013;-70
2021/07/10 09:52:00;;;;;;;4.00;1.02;;;;;;;27.85;49.48;100458.03;6100116;23;20007;-69
2021/07/10 09:54:32;;;;;;;1.42;0.80;;;;;;;27.88;49.82;100459.84;6100229;23;20015;-68
2021/07/10 09:57:05;;;;;;;2.20;0.82;;;;;;;27.94;50.85;100457.78;6100306;23;20393;-69
2021/07/10 09:59:34;;;;;;;3.40;0.90;;;;;;;28.04;50.15;100460.44;6100428;23;20028;-69
2021/07/10 10:02:00;;;;;;;2.30;1.40;;;;;;;28.14;51.28;100447.28;6100118;23;20006;-70
2021/07/10 10:04:30;;;;;;;5.78;1.52;;;;;;;28.18;48.54;100454.38;6074873;23;20011;-68
2021/07/10 10:06:59;;;;;;;3.15;1.00;;;;;;;28.20;48.77;100450.97;6100325;23;20014;-70
2021/07/10 10:09:26;;;;;;;4.13;1.55;;;;;;;28.28;49.56;100454.97;6099522;23;20006;-70
2021/07/10 10:12:03;;;;;;;3.00;1.35;;;;;;;28.38;49.63;100450.50;6098680;23;20279;-70
2021/07/10 10:14:31;;;;;;;1.27;1.17;;;;;;;28.41;50.46;100446.53;6099197;23;20010;-69
2021/07/10 10:16:58;;;;;;;1.95;1.55;;;;;;;28.49;50.49;100438.94;6099618;23;20013;-69
2021/07/10 10:19:27;;;;;;;1.77;1.67;;;;;;;28.56;49.12;100447.06;6100010;23;20002;-70
2021/07/10 10:21:54;;;;;;;4.40;1.83;;;;;;;28.62;49.55;100435.50;6098552;23;20014;-69
2021/07/10 10:24:21;;;;;;;6.30;1.90;;;;;;;28.67;48.52;100431.00;6073561;23;20009;-71
2021/07/10 10:26:48;;;;;;;5.20;2.10;;;;;;;28.72;49.06;100438.88;6098941;23;20010;-70
2021/07/10 10:29:15;;;;;;;2.42;2.22;;;;;;;28.77;48.37;100438.91;6099497;23;20006;-72
2021/07/10 10:31:43;;;;;;;2.70;2.00;;;;;;;28.77;47.17;100438.91;6099173;23;20010;-71
2021/07/10 10:34:09;;;;;;;4.18;1.90;;;;;;;28.77;48.43;100435.22;6098565;23;20022;-69
2021/07/10 10:36:37;;;;;;;5.32;2.22;;;;;;;28.81;47.33;100424.16;6099674;23;20085;-73
2021/07/10 10:39:08;;;;;;;1.98;1.80;;;;;;;28.87;47.71;100427.84;6099043;23;20002;-69
2021/07/10 10:41:38;;;;;;;2.00;1.83;;;;;;;28.93;48.49;100419.94;6099825;23;20003;-70
2021/07/10 10:44:04;;;;;;;4.22;2.60;;;;;;;28.99;48.35;100417.81;6099012;23;20492;-70
2021/07/10 10:46:43;;;;;;;3.25;2.10;;;;;;;29.06;48.80;100416.50;6100075;23;20362;-70
2021/07/10 10:49:31;;;;;;;4.68;2.72;;;;;;;29.11;46.95;100413.56;6099147;23;20393;-70
2021/07/10 10:52:18;;;;;;;4.15;2.10;;;;;;;29.14;47.37;100421.19;6099950;23;20371;-63
2021/07/10 10:54:51;;;;;;;4.18;2.47;;;;;;;29.19;47.04;100413.81;6095977;23;20014;-71
2021/07/10 10:57:28;;;;;;;3.25;2.40;;;;;;;29.27;46.25;100414.03;6100043;23;20014;-71
2021/07/10 10:59:54;;;;;;;2.70;2.40;;;;;;;29.29;46.82;100405.59;6099712;23;20041;-71
2021/07/10 11:02:22;;;;;;;5.00;2.40;;;;;;;29.36;47.52;100410.84;6098850;23;20003;-71
2021/07/10 11:04:55;;;;;;;3.58;2.60;;;;;;;29.41;45.28;100404.22;6100277;23;20009;-71
2021/07/10 11:07:33;;;;;;;4.25;2.63;;;;;;;29.44;45.62;100403.16;6074704;23;20010;-70
2021/07/10 11:10:15;;;;;;;2.72;2.08;;;;;;;29.46;44.54;100395.53;6074985;23;20267;-70
2021/07/10 11:12:50;;;;;;;3.42;2.55;;;;;;;29.44;46.03;100392.41;6074774;23;20367;-71
2021/07/10 11:15:24;;;;;;;2.50;2.30;;;;;;;29.48;47.04;100390.00;6100268;23;20003;-71
2021/07/10 11:17:53;;;;;;;3.00;2.40;;;;;;;29.55;45.66;100388.63;6099881;23;20319;-71
2021/07/10 11:20:41;;;;;;;3.60;2.33;;;;;;;29.62;45.20;100388.09;6099981;23;20007;-70
2021/07/10 11:23:08;;;;;;;4.25;2.75;;;;;;;29.68;45.66;100383.03;6100091;23;20010;-70